sensor_id;sensor_type;location;lat;lon;timestamp;P1;durP1;ratioP1;P2;durP2;ratioP2
12425;SDS011;6277;49.824;9.562;2023-03-23T00:00:03;1.80;;;0.50;;
12425;SDS011;6277;49.824;9.562;2023-03-23T00:02:30;2.53;;;0.60;;
12425;SDS011;6277;49.824;9.562;2023-03-23T00:05:01;0.90;;;0.52;;
12425;SDS011;6277;49.824;9.562;2023-03-23T00:07:28;0.32;;;0.32;;
12425;SDS011;6277;49.824;9.562;2023-03-23T00:09:54;0.65;;;0.45;;
12425;SDS011;6277;49.824;9.562;2023-03-23T00:12:24;1.17;;;0.50;;
12425;SDS011;6277;49.824;9.562;2023-03-23T00:14:58;1.02;;;0.52;;
12425;SDS011;6277;49.824;9.562;2023-03-23T00:17:28;0.65;;;0.50;;
12425;SDS011;6277;49.824;9.562;2023-03-23T00:19:55;1.13;;;0.60;;
12425;SDS011;6277;49.824;9.562;2023-03-23T00:22:20;0.95;;;0.60;;
12425;SDS011;6277;49.824;9.562;2023-03-23T00:24:50;0.95;;;0.55;;
12425;SDS011;6277;49.824;9.562;2023-03-23T00:27:16;0.88;;;0.75;;
12425;SDS011;6277;49.824;9.562;2023-03-23T00:29:43;0.93;;;0.50;;
12425;SDS011;6277;49.824;9.562;2023-03-23T00:32:10;1.63;;;0.55;;
12425;SDS011;6277;49.824;9.562;2023-03-23T00:34:42;0.50;;;0.45;;
12425;SDS011;6277;49.824;9.562;2023-03-23T00:37:10;0.73;;;0.65;;
12425;SDS011;6277;49.824;9.562;2023-03-23T00:39:37;1.65;;;0.60;;
12425;SDS011;6277;49.824;9.562;2023-03-23T00:42:04;1.02;;;0.50;;
12425;SDS011;6277;49.824;9.562;2023-03-23T00:44:30;0.93;;;0.60;;
12425;SDS011;6277;49.824;9.562;2023-03-23T00:46:58;1.33;;;0.50;;
12425;SDS011;6277;49.824;9.562;2023-03-23T00:49:25;1.13;;;0.73;;
12425;SDS011;6277;49.824;9.562;2023-03-23T00:51:51;0.60;;;0.47;;
12425;SDS011;6277;49.824;9.562;2023-03-23T00:54:21;0.90;;;0.50;;
12425;SDS011;6277;49.824;9.562;2023-03-23T00:56:48;1.15;;;0.63;;
12425;SDS011;6277;49.824;9.562;2023-03-23T00:59:14;0.50;;;0.50;;
12425;SDS011;6277;49.824;9.562;2023-03-23T01:01:40;0.80;;;0.60;;
12425;SDS011;6277;49.824;9.562;2023-03-23T01:04:05;1.60;;;0.65;;
12425;SDS011;6277;49.824;9.562;2023-03-23T01:06:33;1.20;;;0.70;;
12425;SDS011;6277;49.824;9.562;2023-03-23T01:09:03;0.90;;;0.60;;
12425;SDS011;6277;49.824;9.562;2023-03-23T01:11:33;1.00;;;0.65;;
12425;SDS011;6277;49.824;9.562;2023-03-23T01:13:59;0.88;;;0.47;;
12425;SDS011;6277;49.824;9.562;2023-03-23T01:16:25;1.35;;;0.50;;
12425;SDS011;6277;49.824;9.562;2023-03-23T01:18:50;0.82;;;0.52;;
12425;SDS011;6277;49.824;9.562;2023-03-23T01:21:17;1.13;;;0.50;;
12425;SDS011;6277;49.824;9.562;2023-03-23T01:23:44;0.95;;;0.55;;
12425;SDS011;6277;49.824;9.562;2023-03-23T01:26:12;1.25;;;0.70;;
12425;SDS011;6277;49.824;9.562;2023-03-23T01:28:39;1.13;;;0.50;;
12425;SDS011;6277;49.824;9.562;2023-03-23T01:31:07;0.57;;;0.45;;
12425;SDS011;6277;49.824;9.562;2023-03-23T01:33:34;1.33;;;0.80;;
12425;SDS011;6277;49.824;9.562;2023-03-23T01:36:04;1.52;;;0.50;;
12425;SDS011;6277;49.824;9.562;2023-03-23T01:38:32;0.65;;;0.50;;
12425;SDS011;6277;49.824;9.562;2023-03-23T01:40:58;1.25;;;0.47;;
12425;SDS011;6277;49.824;9.562;2023-03-23T01:43:26;1.20;;;0.50;;
12425;SDS011;6277;49.824;9.562;2023-03-23T01:45:51;1.00;;;0.40;;
12425;SDS011;6277;49.824;9.562;2023-03-23T01:48:27;1.10;;;0.63;;
12425;SDS011;6277;49.824;9.562;2023-03-23T01:51:04;1.05;;;0.50;;
12425;SDS011;6277;49.824;9.562;2023-03-23T01:53:40;0.90;;;0.50;;
12425;SDS011;6277;49.824;9.562;2023-03-23T01:56:10;0.90;;;0.50;;
12425;SDS011;6277;49.824;9.562;2023-03-23T01:58:39;1.15;;;0.70;;
12425;SDS011;6277;49.824;9.562;2023-03-23T02:01:07;1.25;;;0.60;;
12425;SDS011;6277;49.824;9.562;2023-03-23T02:03:36;1.27;;;0.60;;
12425;SDS011;6277;49.824;9.562;2023-03-23T02:06:04;0.98;;;0.50;;
12425;SDS011;6277;49.824;9.562;2023-03-23T02:08:30;0.63;;;0.50;;
12425;SDS011;6277;49.824;9.562;2023-03-23T02:10:58;1.30;;;0.80;;
12425;SDS011;6277;49.824;9.562;2023-03-23T02:13:24;0.98;;;0.60;;
12425;SDS011;6277;49.824;9.562;2023-03-23T02:16:03;0.68;;;0.50;;
12425;SDS011;6277;49.824;9.562;2023-03-23T02:21:16;1.33;;;0.63;;
12425;SDS011;6277;49.824;9.562;2023-03-23T02:26:55;1.45;;;0.70;;
12425;SDS011;6277;49.824;9.562;2023-03-23T02:35:20;1.02;;;0.50;;
12425;SDS011;6277;49.824;9.562;2023-03-23T02:37:49;0.82;;;0.40;;
12425;SDS011;6277;49.824;9.562;2023-03-23T02:40:21;1.13;;;0.40;;
12425;SDS011;6277;49.824;9.562;2023-03-23T02:42:53;3.25;;;0.60;;
12425;SDS011;6277;49.824;9.562;2023-03-23T02:45:21;0.90;;;0.40;;
12425;SDS011;6277;49.824;9.562;2023-03-23T02:47:49;1.65;;;0.60;;
12425;SDS011;6277;49.824;9.562;2023-03-23T02:50:17;0.60;;;0.40;;
12425;SDS011;6277;49.824;9.562;2023-03-23T02:52:47;0.80;;;0.40;;
12425;SDS011;6277;49.824;9.562;2023-03-23T02:55:15;0.90;;;0.50;;
12425;SDS011;6277;49.824;9.562;2023-03-23T02:57:42;1.42;;;0.40;;
12425;SDS011;6277;49.824;9.562;2023-03-23T03:00:14;0.55;;;0.30;;
12425;SDS011;6277;49.824;9.562;2023-03-23T03:02:46;0.80;;;0.45;;
12425;SDS011;6277;49.824;9.562;2023-03-23T03:07:50;0.73;;;0.40;;
12425;SDS011;6277;49.824;9.562;2023-03-23T03:10:44;0.70;;;0.40;;
12425;SDS011;6277;49.824;9.562;2023-03-23T03:13:32;1.88;;;0.40;;
12425;SDS011;6277;49.824;9.562;2023-03-23T03:16:23;0.73;;;0.40;;
12425;SDS011;6277;49.824;9.562;2023-03-23T03:19:22;0.50;;;0.40;;
12425;SDS011;6277;49.824;9.562;2023-03-23T03:21:53;0.63;;;0.40;;
12425;SDS011;6277;49.824;9.562;2023-03-23T03:24:22;0.82;;;0.40;;
12425;SDS011;6277;49.824;9.562;2023-03-23T03:26:52;0.82;;;0.50;;
12425;SDS011;6277;49.824;9.562;2023-03-23T03:29:26;0.30;;;0.22;;
12425;SDS011;6277;49.824;9.562;2023-03-23T03:31:55;0.77;;;0.33;;
12425;SDS011;6277;49.824;9.562;2023-03-23T03:34:23;1.13;;;0.30;;
12425;SDS011;6277;49.824;9.562;2023-03-23T03:36:50;0.55;;;0.30;;
12425;SDS011;6277;49.824;9.562;2023-03-23T03:39:18;0.50;;;0.30;;
12425;SDS011;6277;49.824;9.562;2023-03-23T03:41:45;1.13;;;0.40;;
12425;SDS011;6277;49.824;9.562;2023-03-23T03:44:11;0.95;;;0.40;;
12425;SDS011;6277;49.824;9.562;2023-03-23T03:46:37;1.23;;;0.40;;
12425;SDS011;6277;49.824;9.562;2023-03-23T03:49:04;0.60;;;0.50;;
12425;SDS011;6277;49.824;9.562;2023-03-23T03:51:31;0.98;;;0.40;;
12425;SDS011;6277;49.824;9.562;2023-03-23T03:53:58;0.82;;;0.40;;
12425;SDS011;6277;49.824;9.562;2023-03-23T03:56:24;0.73;;;0.40;;
12425;SDS011;6277;49.824;9.562;2023-03-23T03:58:51;0.90;;;0.40;;
12425;SDS011;6277;49.824;9.562;2023-03-23T04:01:17;0.55;;;0.45;;
12425;SDS011;6277;49.824;9.562;2023-03-23T04:03:47;0.50;;;0.40;;
12425;SDS011;6277;49.824;9.562;2023-03-23T04:06:13;0.60;;;0.40;;
12425;SDS011;6277;49.824;9.562;2023-03-23T04:08:39;0.60;;;0.40;;
12425;SDS011;6277;49.824;9.562;2023-03-23T04:11:07;0.50;;;0.40;;
12425;SDS011;6277;49.824;9.562;2023-03-23T04:13:33;1.88;;;0.40;;
12425;SDS011;6277;49.824;9.562;2023-03-23T04:15:59;0.73;;;0.60;;
12425;SDS011;6277;49.824;9.562;2023-03-23T04:18:25;1.55;;;0.70;;
12425;SDS011;6277;49.824;9.562;2023-03-23T04:20:51;1.42;;;0.70;;
12425;SDS011;6277;49.824;9.562;2023-03-23T04:23:17;1.15;;;0.65;;
12425;SDS011;6277;49.824;9.562;2023-03-23T04:25:48;1.48;;;0.70;;
12425;SDS011;6277;49.824;9.562;2023-03-23T04:28:15;1.40;;;0.70;;
12425;SDS011;6277;49.824;9.562;2023-03-23T04:30:48;1.73;;;0.55;;
12425;SDS011;6277;49.824;9.562;2023-03-23T04:33:18;1.05;;;0.47;;
12425;SDS011;6277;49.824;9.562;2023-03-23T04:35:44;0.80;;;0.50;;
12425;SDS011;6277;49.824;9.562;2023-03-23T04:38:10;2.65;;;0.45;;
12425;SDS011;6277;49.824;9.562;2023-03-23T04:40:37;0.73;;;0.50;;
12425;SDS011;6277;49.824;9.562;2023-03-23T04:43:04;1.65;;;0.40;;
12425;SDS011;6277;49.824;9.562;2023-03-23T04:45:30;0.63;;;0.40;;
12425;SDS011;6277;49.824;9.562;2023-03-23T04:47:56;0.85;;;0.60;;
12425;SDS011;6277;49.824;9.562;2023-03-23T04:50:22;0.80;;;0.47;;
12425;SDS011;6277;49.824;9.562;2023-03-23T04:52:53;0.60;;;0.50;;
12425;SDS011;6277;49.824;9.562;2023-03-23T04:55:22;0.35;;;0.35;;
12425;SDS011;6277;49.824;9.562;2023-03-23T04:57:48;0.63;;;0.45;;
12425;SDS011;6277;49.824;9.562;2023-03-23T05:00:14;1.73;;;0.60;;
12425;SDS011;6277;49.824;9.562;2023-03-23T05:02:41;1.13;;;0.50;;
12425;SDS011;6277;49.824;9.562;2023-03-23T05:05:08;0.32;;;0.32;;
12425;SDS011;6277;49.824;9.562;2023-03-23T05:07:36;0.88;;;0.50;;
12425;SDS011;6277;49.824;9.562;2023-03-23T05:10:03;0.80;;;0.60;;
12425;SDS011;6277;49.824;9.562;2023-03-23T05:12:30;1.48;;;0.47;;
12425;SDS011;6277;49.824;9.562;2023-03-23T05:14:56;0.80;;;0.50;;
12425;SDS011;6277;49.824;9.562;2023-03-23T05:17:21;0.70;;;0.50;;
12425;SDS011;6277;49.824;9.562;2023-03-23T05:19:49;0.40;;;0.32;;
12425;SDS011;6277;49.824;9.562;2023-03-23T05:22:18;0.73;;;0.50;;
12425;SDS011;6277;49.824;9.562;2023-03-23T05:24:45;1.30;;;0.60;;
12425;SDS011;6277;49.824;9.562;2023-03-23T05:27:16;1.30;;;0.60;;
12425;SDS011;6277;49.824;9.562;2023-03-23T05:29:43;0.75;;;0.60;;
12425;SDS011;6277;49.824;9.562;2023-03-23T05:32:10;0.98;;;0.70;;
12425;SDS011;6277;49.824;9.562;2023-03-23T05:34:36;4.35;;;0.65;;
12425;SDS011;6277;49.824;9.562;2023-03-23T05:37:02;1.48;;;0.50;;
12425;SDS011;6277;49.824;9.562;2023-03-23T05:39:29;0.63;;;0.50;;
12425;SDS011;6277;49.824;9.562;2023-03-23T05:41:56;0.93;;;0.55;;
12425;SDS011;6277;49.824;9.562;2023-03-23T05:44:22;0.93;;;0.57;;
12425;SDS011;6277;49.824;9.562;2023-03-23T05:46:48;1.30;;;0.75;;
12425;SDS011;6277;49.824;9.562;2023-03-23T05:49:14;1.52;;;0.63;;
12425;SDS011;6277;49.824;9.562;2023-03-23T05:51:43;2.05;;;0.80;;
12425;SDS011;6277;49.824;9.562;2023-03-23T05:54:10;2.25;;;0.73;;
12425;SDS011;6277;49.824;9.562;2023-03-23T05:56:36;1.70;;;0.80;;
12425;SDS011;6277;49.824;9.562;2023-03-23T05:59:02;2.05;;;0.65;;
12425;SDS011;6277;49.824;9.562;2023-03-23T06:01:28;1.70;;;0.65;;
12425;SDS011;6277;49.824;9.562;2023-03-23T06:03:54;2.90;;;0.88;;
12425;SDS011;6277;49.824;9.562;2023-03-23T06:06:23;1.75;;;0.70;;
12425;SDS011;6277;49.824;9.562;2023-03-23T06:08:49;1.13;;;0.60;;
12425;SDS011;6277;49.824;9.562;2023-03-23T06:11:15;0.82;;;0.60;;
12425;SDS011;6277;49.824;9.562;2023-03-23T06:13:41;1.55;;;0.80;;
12425;SDS011;6277;49.824;9.562;2023-03-23T06:16:07;2.05;;;0.70;;
12425;SDS011;6277;49.824;9.562;2023-03-23T06:18:33;1.58;;;0.63;;
12425;SDS011;6277;49.824;9.562;2023-03-23T06:21:01;2.17;;;0.80;;
12425;SDS011;6277;49.824;9.562;2023-03-23T06:23:28;1.95;;;0.60;;
12425;SDS011;6277;49.824;9.562;2023-03-23T06:25:55;1.27;;;0.60;;
12425;SDS011;6277;49.824;9.562;2023-03-23T06:28:30;1.20;;;0.63;;
12425;SDS011;6277;49.824;9.562;2023-03-23T06:30:58;1.35;;;0.60;;
12425;SDS011;6277;49.824;9.562;2023-03-23T06:33:29;4.25;;;0.85;;
12425;SDS011;6277;49.824;9.562;2023-03-23T06:35:55;1.48;;;0.68;;
12425;SDS011;6277;49.824;9.562;2023-03-23T06:38:21;1.77;;;0.77;;
12425;SDS011;6277;49.824;9.562;2023-03-23T06:40:46;1.50;;;0.75;;
12425;SDS011;6277;49.824;9.562;2023-03-23T06:43:13;1.02;;;0.68;;
12425;SDS011;6277;49.824;9.562;2023-03-23T06:45:39;0.70;;;0.60;;
12425;SDS011;6277;49.824;9.562;2023-03-23T06:48:05;1.83;;;0.45;;
12425;SDS011;6277;49.824;9.562;2023-03-23T06:50:31;0.80;;;0.50;;
12425;SDS011;6277;49.824;9.562;2023-03-23T06:52:57;1.42;;;0.70;;
12425;SDS011;6277;49.824;9.562;2023-03-23T06:55:22;1.35;;;0.60;;
12425;SDS011;6277;49.824;9.562;2023-03-23T06:57:48;1.23;;;0.50;;
12425;SDS011;6277;49.824;9.562;2023-03-23T07:00:14;1.10;;;0.55;;
12425;SDS011;6277;49.824;9.562;2023-03-23T07:02:40;2.78;;;0.80;;
12425;SDS011;6277;49.824;9.562;2023-03-23T07:05:06;0.82;;;0.60;;
12425;SDS011;6277;49.824;9.562;2023-03-23T07:07:34;1.50;;;0.57;;
12425;SDS011;6277;49.824;9.562;2023-03-23T07:10:00;1.48;;;0.50;;
12425;SDS011;6277;49.824;9.562;2023-03-23T07:12:26;1.35;;;0.70;;
12425;SDS011;6277;49.824;9.562;2023-03-23T07:14:52;1.65;;;0.90;;
12425;SDS011;6277;49.824;9.562;2023-03-23T07:17:17;0.65;;;0.52;;
12425;SDS011;6277;49.824;9.562;2023-03-23T07:19:43;1.35;;;0.85;;
12425;SDS011;6277;49.824;9.562;2023-03-23T07:22:08;1.98;;;0.63;;
12425;SDS011;6277;49.824;9.562;2023-03-23T07:24:34;1.13;;;0.73;;
12425;SDS011;6277;49.824;9.562;2023-03-23T07:27:00;2.55;;;1.00;;
12425;SDS011;6277;49.824;9.562;2023-03-23T07:29:26;1.73;;;0.90;;
12425;SDS011;6277;49.824;9.562;2023-03-23T07:31:52;2.13;;;0.80;;
12425;SDS011;6277;49.824;9.562;2023-03-23T07:34:18;0.73;;;0.60;;
12425;SDS011;6277;49.824;9.562;2023-03-23T07:36:45;1.02;;;0.70;;
12425;SDS011;6277;49.824;9.562;2023-03-23T07:39:11;0.63;;;0.43;;
12425;SDS011;6277;49.824;9.562;2023-03-23T07:41:38;1.20;;;0.60;;
12425;SDS011;6277;49.824;9.562;2023-03-23T07:44:04;0.60;;;0.50;;
12425;SDS011;6277;49.824;9.562;2023-03-23T07:46:30;0.50;;;0.40;;
12425;SDS011;6277;49.824;9.562;2023-03-23T07:48:56;1.05;;;0.80;;
12425;SDS011;6277;49.824;9.562;2023-03-23T07:51:22;1.85;;;0.50;;
12425;SDS011;6277;49.824;9.562;2023-03-23T07:53:49;0.65;;;0.55;;
12425;SDS011;6277;49.824;9.562;2023-03-23T07:56:14;1.27;;;0.60;;
12425;SDS011;6277;49.824;9.562;2023-03-23T07:58:43;0.40;;;0.40;;
12425;SDS011;6277;49.824;9.562;2023-03-23T08:01:09;1.90;;;0.77;;
12425;SDS011;6277;49.824;9.562;2023-03-23T08:03:35;0.63;;;0.50;;
12425;SDS011;6277;49.824;9.562;2023-03-23T08:06:02;0.80;;;0.40;;
12425;SDS011;6277;49.824;9.562;2023-03-23T08:08:27;0.60;;;0.50;;
12425;SDS011;6277;49.824;9.562;2023-03-23T08:10:53;0.70;;;0.60;;
12425;SDS011;6277;49.824;9.562;2023-03-23T08:13:19;1.15;;;0.65;;
12425;SDS011;6277;49.824;9.562;2023-03-23T08:15:44;1.65;;;0.80;;
12425;SDS011;6277;49.824;9.562;2023-03-23T08:18:10;1.05;;;0.63;;
12425;SDS011;6277;49.824;9.562;2023-03-23T08:20:35;1.05;;;0.50;;
12425;SDS011;6277;49.824;9.562;2023-03-23T08:23:01;1.08;;;0.63;;
12425;SDS011;6277;49.824;9.562;2023-03-23T08:25:27;1.13;;;0.60;;
12425;SDS011;6277;49.824;9.562;2023-03-23T08:27:56;0.82;;;0.50;;
12425;SDS011;6277;49.824;9.562;2023-03-23T08:30:21;1.05;;;0.60;;
12425;SDS011;6277;49.824;9.562;2023-03-23T08:32:48;1.77;;;0.55;;
12425;SDS011;6277;49.824;9.562;2023-03-23T08:35:15;1.15;;;0.55;;
12425;SDS011;6277;49.824;9.562;2023-03-23T08:37:41;3.03;;;1.08;;
12425;SDS011;6277;49.824;9.562;2023-03-23T08:40:07;1.75;;;0.80;;
12425;SDS011;6277;49.824;9.562;2023-03-23T08:42:35;1.13;;;0.70;;
12425;SDS011;6277;49.824;9.562;2023-03-23T08:45:06;2.13;;;0.90;;
12425;SDS011;6277;49.824;9.562;2023-03-23T08:47:36;0.85;;;0.55;;
12425;SDS011;6277;49.824;9.562;2023-03-23T08:50:03;1.60;;;0.80;;
12425;SDS011;6277;49.824;9.562;2023-03-23T08:52:30;0.88;;;0.70;;
12425;SDS011;6277;49.824;9.562;2023-03-23T08:54:55;1.30;;;0.70;;
12425;SDS011;6277;49.824;9.562;2023-03-23T08:57:22;1.27;;;0.63;;
12425;SDS011;6277;49.824;9.562;2023-03-23T08:59:48;1.65;;;0.63;;
12425;SDS011;6277;49.824;9.562;2023-03-23T09:02:13;0.77;;;0.55;;
12425;SDS011;6277;49.824;9.562;2023-03-23T09:04:39;1.45;;;0.50;;
12425;SDS011;6277;49.824;9.562;2023-03-23T09:07:09;0.45;;;0.45;;
12425;SDS011;6277;49.824;9.562;2023-03-23T09:09:37;0.93;;;0.55;;
12425;SDS011;6277;49.824;9.562;2023-03-23T09:12:04;1.73;;;0.70;;
12425;SDS011;6277;49.824;9.562;2023-03-23T09:14:31;1.23;;;0.60;;
12425;SDS011;6277;49.824;9.562;2023-03-23T09:16:57;1.52;;;0.60;;
12425;SDS011;6277;49.824;9.562;2023-03-23T09:19:22;0.52;;;0.43;;
12425;SDS011;6277;49.824;9.562;2023-03-23T09:21:48;0.82;;;0.52;;
12425;SDS011;6277;49.824;9.562;2023-03-23T09:24:13;1.25;;;0.52;;
12425;SDS011;6277;49.824;9.562;2023-03-23T09:26:40;0.52;;;0.40;;
12425;SDS011;6277;49.824;9.562;2023-03-23T09:29:05;0.50;;;0.40;;
12425;SDS011;6277;49.824;9.562;2023-03-23T09:31:31;0.80;;;0.50;;
12425;SDS011;6277;49.824;9.562;2023-03-23T09:33:57;0.60;;;0.45;;
12425;SDS011;6277;49.824;9.562;2023-03-23T09:36:24;0.75;;;0.40;;
12425;SDS011;6277;49.824;9.562;2023-03-23T09:38:50;0.77;;;0.40;;
12425;SDS011;6277;49.824;9.562;2023-03-23T09:47:16;0.73;;;0.50;;
12425;SDS011;6277;49.824;9.562;2023-03-23T09:49:49;1.13;;;0.50;;
12425;SDS011;6277;49.824;9.562;2023-03-23T09:52:17;0.50;;;0.40;;
12425;SDS011;6277;49.824;9.562;2023-03-23T09:54:48;0.60;;;0.38;;
12425;SDS011;6277;49.824;9.562;2023-03-23T10:00:12;0.47;;;0.30;;
12425;SDS011;6277;49.824;9.562;2023-03-23T10:02:56;1.45;;;0.50;;
12425;SDS011;6277;49.824;9.562;2023-03-23T10:05:38;0.90;;;0.30;;
12425;SDS011;6277;49.824;9.562;2023-03-23T10:08:09;1.48;;;0.45;;
12425;SDS011;6277;49.824;9.562;2023-03-23T10:10:44;0.88;;;0.38;;
12425;SDS011;6277;49.824;9.562;2023-03-23T10:13:24;0.52;;;0.45;;
12425;SDS011;6277;49.824;9.562;2023-03-23T10:15:52;0.55;;;0.40;;
12425;SDS011;6277;49.824;9.562;2023-03-23T10:21:13;1.08;;;0.50;;
12425;SDS011;6277;49.824;9.562;2023-03-23T10:31:41;0.77;;;0.30;;
12425;SDS011;6277;49.824;9.562;2023-03-23T10:34:12;0.77;;;0.40;;
12425;SDS011;6277;49.824;9.562;2023-03-23T10:36:59;1.00;;;0.40;;
12425;SDS011;6277;49.824;9.562;2023-03-23T10:39:46;0.60;;;0.38;;
12425;SDS011;6277;49.824;9.562;2023-03-23T10:42:25;0.40;;;0.35;;
12425;SDS011;6277;49.824;9.562;2023-03-23T10:45:11;0.73;;;0.50;;
12425;SDS011;6277;49.824;9.562;2023-03-23T10:47:55;0.73;;;0.40;;
12425;SDS011;6277;49.824;9.562;2023-03-23T10:50:38;0.55;;;0.40;;
12425;SDS011;6277;49.824;9.562;2023-03-23T10:53:11;0.40;;;0.30;;
12425;SDS011;6277;49.824;9.562;2023-03-23T10:55:42;0.75;;;0.45;;
12425;SDS011;6277;49.824;9.562;2023-03-23T10:58:10;1.08;;;0.40;;
12425;SDS011;6277;49.824;9.562;2023-03-23T11:00:45;0.68;;;0.40;;
12425;SDS011;6277;49.824;9.562;2023-03-23T11:05:48;1.17;;;0.32;;
12425;SDS011;6277;49.824;9.562;2023-03-23T11:08:22;0.70;;;0.40;;
12425;SDS011;6277;49.824;9.562;2023-03-23T11:13:45;0.40;;;0.30;;
12425;SDS011;6277;49.824;9.562;2023-03-23T11:18:57;0.30;;;0.22;;
12425;SDS011;6277;49.824;9.562;2023-03-23T11:21:24;0.75;;;0.40;;
12425;SDS011;6277;49.824;9.562;2023-03-23T11:23:53;0.52;;;0.30;;
12425;SDS011;6277;49.824;9.562;2023-03-23T11:29:06;0.30;;;0.30;;
12425;SDS011;6277;49.824;9.562;2023-03-23T11:31:49;0.40;;;0.30;;
12425;SDS011;6277;49.824;9.562;2023-03-23T11:34:48;0.57;;;0.30;;
12425;SDS011;6277;49.824;9.562;2023-03-23T11:37:33;0.77;;;0.40;;
12425;SDS011;6277;49.824;9.562;2023-03-23T11:42:42;0.30;;;0.22;;
12425;SDS011;6277;49.824;9.562;2023-03-23T11:47:57;1.45;;;0.28;;
12425;SDS011;6277;49.824;9.562;2023-03-23T11:50:51;0.52;;;0.35;;
12425;SDS011;6277;49.824;9.562;2023-03-23T11:53:43;1.55;;;0.88;;
12425;SDS011;6277;49.824;9.562;2023-03-23T11:56:35;0.40;;;0.25;;
12425;SDS011;6277;49.824;9.562;2023-03-23T11:59:03;0.65;;;0.40;;
12425;SDS011;6277;49.824;9.562;2023-03-23T12:04:32;0.30;;;0.30;;
12425;SDS011;6277;49.824;9.562;2023-03-23T12:09:51;0.93;;;0.40;;
12425;SDS011;6277;49.824;9.562;2023-03-23T12:12:48;1.20;;;0.40;;
12425;SDS011;6277;49.824;9.562;2023-03-23T12:20:29;0.40;;;0.40;;
12425;SDS011;6277;49.824;9.562;2023-03-23T12:23:24;0.63;;;0.40;;
12425;SDS011;6277;49.824;9.562;2023-03-23T12:42:19;0.50;;;0.50;;
12425;SDS011;6277;49.824;9.562;2023-03-23T12:44:54;1.17;;;0.47;;
12425;SDS011;6277;49.824;9.562;2023-03-23T12:50:02;1.83;;;0.65;;
12425;SDS011;6277;49.824;9.562;2023-03-23T12:58:09;1.33;;;0.68;;
12425;SDS011;6277;49.824;9.562;2023-03-23T13:03:28;1.05;;;0.50;;
12425;SDS011;6277;49.824;9.562;2023-03-23T13:09:14;0.38;;;0.38;;
12425;SDS011;6277;49.824;9.562;2023-03-23T13:11:44;0.55;;;0.40;;
12425;SDS011;6277;49.824;9.562;2023-03-23T13:22:41;0.60;;;0.28;;
12425;SDS011;6277;49.824;9.562;2023-03-23T13:27:59;0.52;;;0.20;;
12425;SDS011;6277;49.824;9.562;2023-03-23T13:30:26;1.85;;;0.38;;
12425;SDS011;6277;49.824;9.562;2023-03-23T13:33:00;0.85;;;0.22;;
12425;SDS011;6277;49.824;9.562;2023-03-23T13:35:32;0.43;;;0.20;;
12425;SDS011;6277;49.824;9.562;2023-03-23T13:38:00;0.38;;;0.20;;
12425;SDS011;6277;49.824;9.562;2023-03-23T13:40:26;0.95;;;0.40;;
12425;SDS011;6277;49.824;9.562;2023-03-23T13:42:55;0.20;;;0.20;;
12425;SDS011;6277;49.824;9.562;2023-03-23T13:45:24;0.52;;;0.25;;
12425;SDS011;6277;49.824;9.562;2023-03-23T13:48:03;0.73;;;0.20;;
12425;SDS011;6277;49.824;9.562;2023-03-23T13:51:21;0.25;;;0.20;;
12425;SDS011;6277;49.824;9.562;2023-03-23T13:53:48;1.13;;;0.20;;
12425;SDS011;6277;49.824;9.562;2023-03-23T13:56:19;0.25;;;0.20;;
12425;SDS011;6277;49.824;9.562;2023-03-23T13:58:48;2.65;;;0.32;;
12425;SDS011;6277;49.824;9.562;2023-03-23T14:01:18;1.13;;;0.20;;
12425;SDS011;6277;49.824;9.562;2023-03-23T14:03:53;0.30;;;0.22;;
12425;SDS011;6277;49.824;9.562;2023-03-23T14:06:20;0.65;;;0.20;;
12425;SDS011;6277;49.824;9.562;2023-03-23T14:08:50;0.30;;;0.20;;
12425;SDS011;6277;49.824;9.562;2023-03-23T14:11:25;1.25;;;0.30;;
12425;SDS011;6277;49.824;9.562;2023-03-23T14:14:03;1.50;;;0.30;;
12425;SDS011;6277;49.824;9.562;2023-03-23T14:16:39;0.98;;;0.20;;
12425;SDS011;6277;49.824;9.562;2023-03-23T14:21:49;0.50;;;0.40;;
12425;SDS011;6277;49.824;9.562;2023-03-23T14:24:24;0.22;;;0.22;;
12425;SDS011;6277;49.824;9.562;2023-03-23T14:29:30;0.35;;;0.30;;
12425;SDS011;6277;49.824;9.562;2023-03-23T14:31:56;2.00;;;0.40;;
12425;SDS011;6277;49.824;9.562;2023-03-23T14:34:25;1.13;;;0.45;;
12425;SDS011;6277;49.824;9.562;2023-03-23T14:36:53;0.73;;;0.47;;
12425;SDS011;6277;49.824;9.562;2023-03-23T14:41:46;0.52;;;0.35;;
12425;SDS011;6277;49.824;9.562;2023-03-23T14:44:14;0.60;;;0.40;;
12425;SDS011;6277;49.824;9.562;2023-03-23T14:46:43;0.57;;;0.40;;
12425;SDS011;6277;49.824;9.562;2023-03-23T14:49:10;1.10;;;0.57;;
12425;SDS011;6277;49.824;9.562;2023-03-23T14:51:46;0.52;;;0.40;;
12425;SDS011;6277;49.824;9.562;2023-03-23T14:54:20;0.80;;;0.70;;
12425;SDS011;6277;49.824;9.562;2023-03-23T14:56:54;0.75;;;0.55;;
12425;SDS011;6277;49.824;9.562;2023-03-23T14:59:20;1.63;;;0.70;;
12425;SDS011;6277;49.824;9.562;2023-03-23T15:01:47;0.90;;;0.70;;
12425;SDS011;6277;49.824;9.562;2023-03-23T15:06:54;2.35;;;0.70;;
12425;SDS011;6277;49.824;9.562;2023-03-23T15:09:24;1.98;;;0.65;;
12425;SDS011;6277;49.824;9.562;2023-03-23T15:11:52;1.35;;;0.50;;
12425;SDS011;6277;49.824;9.562;2023-03-23T15:14:22;2.78;;;0.80;;
12425;SDS011;6277;49.824;9.562;2023-03-23T15:16:52;0.60;;;0.50;;
12425;SDS011;6277;49.824;9.562;2023-03-23T15:19:21;1.10;;;0.63;;
12425;SDS011;6277;49.824;9.562;2023-03-23T15:22:05;0.95;;;0.60;;
12425;SDS011;6277;49.824;9.562;2023-03-23T15:24:38;0.70;;;0.50;;
12425;SDS011;6277;49.824;9.562;2023-03-23T15:27:23;0.82;;;0.55;;
12425;SDS011;6277;49.824;9.562;2023-03-23T15:29:53;1.63;;;0.80;;
12425;SDS011;6277;49.824;9.562;2023-03-23T15:32:23;2.15;;;0.70;;
12425;SDS011;6277;49.824;9.562;2023-03-23T15:34:53;1.10;;;0.63;;
12425;SDS011;6277;49.824;9.562;2023-03-23T15:37:20;0.70;;;0.60;;
12425;SDS011;6277;49.824;9.562;2023-03-23T15:39:55;1.20;;;0.68;;
12425;SDS011;6277;49.824;9.562;2023-03-23T15:42:23;1.92;;;1.02;;
12425;SDS011;6277;49.824;9.562;2023-03-23T15:44:58;0.90;;;0.63;;
12425;SDS011;6277;49.824;9.562;2023-03-23T15:50:14;1.38;;;0.63;;
12425;SDS011;6277;49.824;9.562;2023-03-23T15:52:42;2.22;;;0.70;;
12425;SDS011;6277;49.824;9.562;2023-03-23T15:55:25;1.63;;;0.70;;
12425;SDS011;6277;49.824;9.562;2023-03-23T15:57:53;1.00;;;0.70;;
12425;SDS011;6277;49.824;9.562;2023-03-23T16:00:21;1.33;;;0.70;;
12425;SDS011;6277;49.824;9.562;2023-03-23T16:02:53;1.05;;;0.70;;
12425;SDS011;6277;49.824;9.562;2023-03-23T16:05:21;1.92;;;0.60;;
12425;SDS011;6277;49.824;9.562;2023-03-23T16:07:47;1.58;;;0.68;;
12425;SDS011;6277;49.824;9.562;2023-03-23T16:10:15;0.88;;;0.68;;
12425;SDS011;6277;49.824;9.562;2023-03-23T16:12:43;0.70;;;0.60;;
12425;SDS011;6277;49.824;9.562;2023-03-23T16:15:09;0.95;;;0.50;;
12425;SDS011;6277;49.824;9.562;2023-03-23T16:17:35;1.20;;;0.65;;
12425;SDS011;6277;49.824;9.562;2023-03-23T16:20:00;1.10;;;0.70;;
12425;SDS011;6277;49.824;9.562;2023-03-23T16:22:28;1.02;;;0.70;;
12425;SDS011;6277;49.824;9.562;2023-03-23T16:24:53;1.73;;;0.80;;
12425;SDS011;6277;49.824;9.562;2023-03-23T16:27:19;1.05;;;0.65;;
12425;SDS011;6277;49.824;9.562;2023-03-23T16:29:45;1.65;;;0.80;;
12425;SDS011;6277;49.824;9.562;2023-03-23T16:32:11;1.42;;;0.60;;
12425;SDS011;6277;49.824;9.562;2023-03-23T16:34:36;1.23;;;0.80;;
12425;SDS011;6277;49.824;9.562;2023-03-23T16:37:02;1.05;;;0.90;;
12425;SDS011;6277;49.824;9.562;2023-03-23T16:39:28;1.63;;;0.70;;
12425;SDS011;6277;49.824;9.562;2023-03-23T16:41:54;2.15;;;0.90;;
12425;SDS011;6277;49.824;9.562;2023-03-23T16:44:19;1.75;;;0.80;;
12425;SDS011;6277;49.824;9.562;2023-03-23T16:46:45;0.60;;;0.60;;
12425;SDS011;6277;49.824;9.562;2023-03-23T16:49:10;1.38;;;0.80;;
12425;SDS011;6277;49.824;9.562;2023-03-23T16:51:36;1.00;;;0.60;;
12425;SDS011;6277;49.824;9.562;2023-03-23T16:54:01;1.15;;;0.70;;
12425;SDS011;6277;49.824;9.562;2023-03-23T16:56:27;0.80;;;0.70;;
12425;SDS011;6277;49.824;9.562;2023-03-23T16:58:52;1.55;;;0.70;;
12425;SDS011;6277;49.824;9.562;2023-03-23T17:01:18;1.40;;;0.75;;
12425;SDS011;6277;49.824;9.562;2023-03-23T17:03:44;1.05;;;0.77;;
12425;SDS011;6277;49.824;9.562;2023-03-23T17:06:09;1.35;;;0.80;;
12425;SDS011;6277;49.824;9.562;2023-03-23T17:08:35;0.90;;;0.60;;